Russellville, AR

5:09 AM CDT on April 26, 2017 (GMT -0500)
Amateur Radio Station WB5JJJ | | Change Station
Active Advisory: Lake Wind Advisory

Elev 377 ft 35.28 °N, 93.15 °W | Updated 10 seconds ago

Overcast
Overcast
71.0 °F
Feels Like 71.0 °F
N
0.0
Wind Variable Wind from East
Gusts 2.0 mph

Today
High -- | Low -- °F
--% Chance of Precip.
Yesterday
High -- | Low -- °F
Precip. -- in
Pressure 29.50 in
Visibility 10.0 miles
Clouds Few 4800 ft
Overcast 6000 ft
Dew Point 66 °F
Humidity 86%
Rainfall 0.00 in
Snow Depth Not available.
6:26 AM 7:54 PM
Waning Crescent, 0% visible
METAR KRUE 260953Z AUTO VRB05KT 10SM FEW048 OVC060 22/18 A2952 RMK AO2 SLP989 T02220178
Pressure 29.50 in
Visibility 10.0 miles
Clouds Few 4800 ft
Overcast 6000 ft
Dew Point 66 °F
Humidity 86%
Rainfall 0.00 in
Snow Depth Not available.
6:26 AM 7:54 PM
Waning Crescent, 0% visible
METAR KRUE 260953Z AUTO VRB05KT 10SM FEW048 OVC060 22/18 A2952 RMK AO2 SLP989 T02220178

Get Your Daily Forecast Email!

Thanks for signing up!

Be on the lookout for a verification email in your inbox.

You'll start receiving severe weather alerts in your inbox..

×

10-Day Weather Forecast

Almanac

Astronomy

Apr. 26, 2017 Rise Set
Actual Time
Civil Twilight
Nautical Twilight
Astronomical Twilight
Moon
Length of Visible Light
Length of Day
Tomorrow will be .
, % of the Moon is Illuminated

Today's Extremes

State Highs State Lows

Community

WunderPhotos

WunderBlog® & News

Nearby

Air Quality

  Air Quality AQ Index Pollutant
Not available.

Snow Depth

Station Depth Elevation

Earthquake Activity

City Distance Mag. Time & Date
Minimum magnitude displayed is 2.5.

Coastal Water Temperatures

Place Temperature

Stations

Nearby Weather Stations

Station Location Temp. Windchill Dew Point Humidity Wind Precip. Elev Updated Type
                   

Watches & Warnings

Lake Wind Advisory
Issued: 4:19 AM CDT Apr. 26, 2017 – National Weather Service

... Lake Wind Advisory in effect from 9 am this morning to 8 PM
CDT this evening...

The National Weather Service in Little Rock has issued a lake
Wind Advisory, which is in effect from 9 am this morning to 8 PM
CDT this evening.

* Event... south winds will be elevated and produce wind
conditions.

* Areas affected... much of Arkansas.

* Timing... by 9 am CDT winds will become elevated and last to
earlier evening around 8 PM CDT.

* Winds... south winds will reach 15 to 25 mph with some gusts to
30 to 35 mph.

* Impacts... boaters on area lakes and rivers should use extra
caution due to the expected high winds.

Precautionary/preparedness actions...

A lake Wind Advisory indicates that winds will cause rough chop
on area lakes, as well as some areas rivers. Small boats will be
especially prone to capsizing.



59